createdAt,value
2022-10-21T00:01:55.822Z,10.56
2022-10-21T00:04:22.392Z,10.50
2022-10-21T00:06:48.997Z,10.46
2022-10-21T00:09:15.618Z,10.43
2022-10-21T00:11:42.220Z,10.41
2022-10-21T00:14:09.045Z,10.40
2022-10-21T00:16:35.647Z,10.38
2022-10-21T00:19:02.216Z,10.38
2022-10-21T00:21:28.859Z,10.37
2022-10-21T00:23:55.543Z,10.38
2022-10-21T00:26:22.759Z,10.39
2022-10-21T00:28:49.276Z,10.39
2022-10-21T00:31:16.229Z,10.40
2022-10-21T00:33:43.307Z,10.39
2022-10-21T00:36:15.135Z,10.41
2022-10-21T00:38:44.385Z,10.41
2022-10-21T00:41:11.818Z,10.43
2022-10-21T00:43:53.725Z,10.41
2022-10-21T00:46:40.464Z,10.38
2022-10-21T00:49:14.950Z,10.33
2022-10-21T00:51:42.484Z,10.28
2022-10-21T00:54:09.767Z,10.24
2022-10-21T00:56:37.397Z,10.21
2022-10-21T00:59:06.398Z,10.19
2022-10-21T01:01:33.587Z,10.17
2022-10-21T01:04:01.802Z,10.17
2022-10-21T01:06:29.244Z,10.16
2022-10-21T01:08:57.117Z,10.15
2022-10-21T01:11:25.574Z,10.15
2022-10-21T01:14:04.829Z,10.15
2022-10-21T01:16:54.966Z,10.17
2022-10-21T01:19:39.784Z,10.17
2022-10-21T01:22:40.014Z,10.16
2022-10-21T01:25:31.476Z,10.16
2022-10-21T01:28:24.299Z,10.15
2022-10-21T01:31:05.380Z,10.16
2022-10-21T01:33:56.859Z,10.17
2022-10-21T01:37:10.771Z,10.19
2022-10-21T01:39:42.946Z,10.20
2022-10-21T01:42:25.739Z,10.21
2022-10-21T01:45:02.629Z,10.24
2022-10-21T01:47:33.864Z,10.26
2022-10-21T01:50:13.499Z,10.29
2022-10-21T01:52:42.318Z,10.33
2022-10-21T01:55:16.143Z,10.37
2022-10-21T01:57:46.452Z,10.43
2022-10-21T02:00:13.965Z,10.49
2022-10-21T02:02:45.989Z,10.53
2022-10-21T02:05:21.998Z,10.55
2022-10-21T02:07:49.328Z,10.55
2022-10-21T02:10:18.114Z,10.54
2022-10-21T02:12:47.969Z,10.52
2022-10-21T02:15:16.207Z,10.51
2022-10-21T02:17:52.181Z,10.49
2022-10-21T02:20:21.586Z,10.50
2022-10-21T02:22:49.208Z,10.48
2022-10-21T02:25:23.768Z,10.51
2022-10-21T02:27:51.242Z,10.54
2022-10-21T02:30:18.250Z,10.61
2022-10-21T02:32:49.407Z,10.69
2022-10-21T02:35:27.795Z,10.77
2022-10-21T02:38:02.289Z,10.82
2022-10-21T02:40:40.386Z,10.89
2022-10-21T02:43:12.119Z,10.95
2022-10-21T02:45:39.503Z,11.01
2022-10-21T02:48:06.629Z,11.08
2022-10-21T02:50:33.214Z,11.11
2022-10-21T02:52:59.787Z,11.14
2022-10-21T02:55:26.272Z,11.17
2022-10-21T02:57:52.861Z,11.18
2022-10-21T03:00:19.475Z,11.18
2022-10-21T03:02:46.054Z,11.18
2022-10-21T03:05:12.981Z,11.15
2022-10-21T03:07:41.226Z,11.15
2022-10-21T03:10:08.633Z,11.16
2022-10-21T03:12:35.170Z,11.18
2022-10-21T03:15:01.680Z,11.18
2022-10-21T03:17:28.219Z,11.12
2022-10-21T03:19:54.741Z,11.08
2022-10-21T03:22:21.288Z,11.02
2022-10-21T03:24:47.794Z,10.99
2022-10-21T03:27:14.309Z,10.97
2022-10-21T03:29:40.877Z,10.95
2022-10-21T03:32:07.427Z,10.94
2022-10-21T03:34:33.993Z,10.94
2022-10-21T03:37:00.499Z,10.92
2022-10-21T03:39:26.974Z,10.94
2022-10-21T03:41:53.508Z,10.98
2022-10-21T03:44:19.998Z,11.04
2022-10-21T03:46:46.505Z,11.10
2022-10-21T03:49:20.097Z,11.12
2022-10-21T03:51:48.411Z,11.15
2022-10-21T03:54:15.537Z,11.20
2022-10-21T03:56:42.519Z,11.25
2022-10-21T03:59:09.169Z,11.30
2022-10-21T04:01:36.175Z,11.32
2022-10-21T04:04:02.723Z,11.35
2022-10-21T04:06:29.369Z,11.39
2022-10-21T04:08:55.998Z,11.39
2022-10-21T04:11:22.703Z,11.39
2022-10-21T04:13:49.303Z,11.36
2022-10-21T04:16:19.327Z,11.36
2022-10-21T04:18:46.730Z,11.37
2022-10-21T04:21:13.453Z,11.42
2022-10-21T04:23:39.987Z,11.46
2022-10-21T04:26:07.793Z,11.48
2022-10-21T04:28:35.197Z,11.53
2022-10-21T04:31:01.924Z,11.57
2022-10-21T04:33:28.508Z,11.62
2022-10-21T04:35:56.724Z,11.70
2022-10-21T04:38:23.446Z,11.76
2022-10-21T04:40:57.734Z,11.83
2022-10-21T04:43:24.793Z,11.88
2022-10-21T04:45:51.448Z,11.93
2022-10-21T04:48:18.402Z,11.93
2022-10-21T04:50:44.928Z,11.95
2022-10-21T04:53:11.433Z,11.94
2022-10-21T04:55:41.100Z,11.98
2022-10-21T04:58:07.565Z,12.00
2022-10-21T05:00:34.248Z,12.04
2022-10-21T05:03:00.991Z,12.07
2022-10-21T05:05:27.672Z,12.08
2022-10-21T05:07:54.310Z,12.12
2022-10-21T05:10:22.349Z,12.17
2022-10-21T05:12:48.881Z,12.19
2022-10-21T05:15:15.355Z,12.19
2022-10-21T05:17:42.026Z,12.18
2022-10-21T05:20:09.146Z,12.12
2022-10-21T05:22:36.544Z,12.06
2022-10-21T05:25:03.531Z,12.01
2022-10-21T05:27:30.144Z,11.96
2022-10-21T05:29:58.298Z,11.92
2022-10-21T05:32:25.384Z,11.90
2022-10-21T05:34:52.046Z,11.89
2022-10-21T05:37:18.682Z,11.87
2022-10-21T05:39:45.190Z,11.85
2022-10-21T05:42:11.889Z,11.83
2022-10-21T05:44:38.471Z,11.87
2022-10-21T05:47:04.965Z,11.91
2022-10-21T05:49:31.467Z,11.91
2022-10-21T05:51:57.992Z,11.90
2022-10-21T05:54:24.594Z,11.86
2022-10-21T05:56:51.170Z,11.85
2022-10-21T05:59:17.685Z,11.80
2022-10-21T06:01:44.225Z,11.80
2022-10-21T06:04:10.706Z,11.78
2022-10-21T06:06:37.245Z,11.77
2022-10-21T06:09:04.244Z,11.76
2022-10-21T06:11:31.458Z,11.76
2022-10-21T06:13:58.087Z,11.78
2022-10-21T06:16:24.645Z,11.79
2022-10-21T06:18:51.367Z,11.80
2022-10-21T06:21:17.928Z,11.83
2022-10-21T06:23:44.530Z,11.85
2022-10-21T06:26:13.785Z,11.88
2022-10-21T06:28:42.890Z,11.91
2022-10-21T06:31:13.828Z,11.95
2022-10-21T06:33:40.462Z,11.96
2022-10-21T06:36:07.449Z,11.98
2022-10-21T06:38:34.191Z,12.01
2022-10-21T06:41:09.155Z,12.04
2022-10-21T06:43:39.096Z,12.08
2022-10-21T06:46:08.717Z,12.17
2022-10-21T06:48:35.354Z,12.24
2022-10-21T06:51:11.990Z,12.33
2022-10-21T06:53:39.371Z,12.41
2022-10-21T06:56:18.537Z,12.50
2022-10-21T06:58:48.160Z,12.56
2022-10-21T07:01:33.577Z,12.61
2022-10-21T07:04:03.431Z,12.63
2022-10-21T07:06:30.363Z,12.68
2022-10-21T07:08:58.826Z,12.72
2022-10-21T07:11:27.153Z,12.77
2022-10-21T07:13:53.692Z,12.81
2022-10-21T07:16:32.125Z,12.89
2022-10-21T07:18:58.704Z,12.95
2022-10-21T07:21:29.798Z,12.99
2022-10-21T07:23:59.121Z,13.05
2022-10-21T07:26:30.422Z,13.12
2022-10-21T07:28:58.912Z,13.20
2022-10-21T07:31:26.066Z,13.26
2022-10-21T07:33:53.119Z,13.33
2022-10-21T07:36:23.678Z,13.39
2022-10-21T07:38:51.154Z,13.48
2022-10-21T07:41:21.312Z,13.53
2022-10-21T07:43:48.542Z,13.60
2022-10-21T07:46:15.923Z,13.65
2022-10-21T07:48:42.449Z,13.73
2022-10-21T07:51:12.565Z,13.80
2022-10-21T07:53:40.167Z,13.87
2022-10-21T07:56:11.174Z,13.99
2022-10-21T07:58:38.404Z,14.13
2022-10-21T08:01:09.024Z,14.29
2022-10-21T08:03:36.554Z,14.49
2022-10-21T08:06:03.553Z,14.70
2022-10-21T08:08:31.598Z,14.91
2022-10-21T08:10:58.177Z,15.07
2022-10-21T08:13:25.384Z,15.18
2022-10-21T08:15:54.286Z,15.28
2022-10-21T08:18:22.208Z,15.39
2022-10-21T08:20:49.246Z,15.49
2022-10-21T08:23:18.457Z,15.57
2022-10-21T08:25:56.487Z,15.66
2022-10-21T08:28:25.503Z,15.74
2022-10-21T08:30:52.114Z,15.84
2022-10-21T08:33:18.780Z,15.95
2022-10-21T08:35:45.573Z,16.07
2022-10-21T08:38:12.469Z,16.19
2022-10-21T08:40:44.292Z,16.30
2022-10-21T08:43:21.300Z,16.42
2022-10-21T08:46:08.037Z,16.52
2022-10-21T08:48:43.854Z,16.62
2022-10-21T08:51:28.072Z,16.70
2022-10-21T08:53:59.950Z,16.77
2022-10-21T08:56:30.140Z,16.82
2022-10-21T08:58:56.985Z,16.82
2022-10-21T09:01:40.090Z,16.88
2022-10-21T09:04:23.339Z,16.91
2022-10-21T09:07:01.171Z,16.97
2022-10-21T09:09:38.328Z,17.01
2022-10-21T09:12:38.547Z,17.06
2022-10-21T09:15:08.715Z,17.11
2022-10-21T09:17:46.660Z,17.17
2022-10-21T09:20:15.869Z,17.25
2022-10-21T09:23:16.524Z,17.33
2022-10-21T09:26:26.598Z,17.40
2022-10-21T09:28:56.721Z,17.45
2022-10-21T09:31:23.238Z,17.49
2022-10-21T09:33:58.983Z,17.51
2022-10-21T09:36:34.810Z,17.55
2022-10-21T09:39:11.243Z,17.62
2022-10-21T09:41:43.017Z,17.71
2022-10-21T09:44:21.885Z,17.81
2022-10-21T09:46:50.966Z,17.88
2022-10-21T09:50:02.132Z,17.93
2022-10-21T09:52:28.749Z,18.01
2022-10-21T09:54:56.347Z,18.08
2022-10-21T09:57:29.992Z,18.15
2022-10-21T10:00:01.188Z,18.26
2022-10-21T10:02:35.555Z,18.35
2022-10-21T10:05:05.386Z,18.41
2022-10-21T10:07:35.904Z,18.51
2022-10-21T10:10:24.171Z,18.54
2022-10-21T10:12:58.276Z,18.63
2022-10-21T10:15:38.668Z,18.70
2022-10-21T10:18:19.973Z,18.78
2022-10-21T10:20:46.471Z,18.82
2022-10-21T10:23:19.412Z,18.86
2022-10-21T10:25:50.966Z,18.87
2022-10-21T10:28:23.378Z,18.85
2022-10-21T10:30:54.127Z,18.80
2022-10-21T10:33:25.337Z,18.78
2022-10-21T10:36:00.475Z,18.76
2022-10-21T10:38:29.759Z,18.79
2022-10-21T10:41:05.943Z,18.86
2022-10-21T10:43:35.167Z,18.94
2022-10-21T10:46:05.092Z,18.95
2022-10-21T10:48:34.674Z,18.96
2022-10-21T10:51:06.562Z,18.95
2022-10-21T10:53:38.270Z,18.92
2022-10-21T10:56:07.655Z,18.89
2022-10-21T10:58:38.278Z,18.84
2022-10-21T11:01:12.886Z,18.82
2022-10-21T11:03:59.679Z,18.78
2022-10-21T11:06:36.522Z,18.72
2022-10-21T11:09:06.719Z,18.70
2022-10-21T11:11:41.062Z,18.67
2022-10-21T11:14:18.981Z,18.61
2022-10-21T11:17:06.873Z,18.57
2022-10-21T11:19:52.497Z,18.53
2022-10-21T11:22:40.692Z,18.50
2022-10-21T11:25:22.867Z,18.48
2022-10-21T11:28:03.848Z,18.47
2022-10-21T11:30:42.643Z,18.45
2022-10-21T11:33:15.302Z,18.41
2022-10-21T11:36:06.301Z,18.39
2022-10-21T11:38:58.982Z,18.35
2022-10-21T11:41:40.367Z,18.31
2022-10-21T11:44:19.223Z,18.32
2022-10-21T11:47:13.623Z,18.35
2022-10-21T11:49:56.421Z,18.38
2022-10-21T11:52:28.839Z,18.40
2022-10-21T11:55:12.522Z,18.38
2022-10-21T11:58:01.372Z,18.35
2022-10-21T12:00:35.737Z,18.32
2022-10-21T12:03:39.272Z,18.30
2022-10-21T12:06:21.345Z,18.23
2022-10-21T12:08:58.388Z,18.17
2022-10-21T12:11:46.615Z,18.14
2022-10-21T12:14:31.377Z,18.12
2022-10-21T12:17:01.582Z,18.08
2022-10-21T12:19:28.675Z,18.04
2022-10-21T12:21:55.466Z,17.98
2022-10-21T12:24:31.131Z,17.89
2022-10-21T12:27:14.306Z,17.85
2022-10-21T12:29:56.222Z,17.81
2022-10-21T12:32:31.411Z,17.78
2022-10-21T12:34:58.345Z,17.80
2022-10-21T12:37:44.057Z,17.82
2022-10-21T12:40:17.468Z,17.86
2022-10-21T12:42:56.876Z,17.93
2022-10-21T12:45:42.095Z,17.98
2022-10-21T12:48:33.900Z,18.01
2022-10-21T12:51:04.025Z,18.03
2022-10-21T12:53:38.346Z,17.99
2022-10-21T12:56:06.491Z,17.96
2022-10-21T12:58:38.764Z,17.92
2022-10-21T13:01:26.822Z,17.88
2022-10-21T13:03:55.781Z,17.84
2022-10-21T13:06:54.501Z,17.77
2022-10-21T13:09:41.961Z,17.70
2022-10-21T13:12:08.467Z,17.64
2022-10-21T13:14:45.620Z,17.58
2022-10-21T13:17:21.219Z,17.53
2022-10-21T13:19:48.846Z,17.50
2022-10-21T13:22:20.300Z,17.46
2022-10-21T13:24:47.825Z,17.42
2022-10-21T13:27:32.070Z,17.37
2022-10-21T13:29:59.947Z,17.32
2022-10-21T13:32:28.840Z,17.28
2022-10-21T13:34:56.262Z,17.25
2022-10-21T13:37:30.033Z,17.21
2022-10-21T13:39:59.661Z,17.18
2022-10-21T13:42:33.632Z,17.20
2022-10-21T13:45:07.237Z,17.20
2022-10-21T13:47:36.086Z,17.21
2022-10-21T13:50:13.241Z,17.25
2022-10-21T13:52:43.325Z,17.28
2022-10-21T13:55:24.789Z,17.28
2022-10-21T13:57:54.947Z,17.26
2022-10-21T14:00:30.633Z,17.23
2022-10-21T14:03:05.513Z,17.17
2022-10-21T14:05:48.519Z,17.13
2022-10-21T14:08:24.365Z,17.05
2022-10-21T14:10:51.667Z,17.00
2022-10-21T14:13:24.251Z,16.98
2022-10-21T14:15:52.114Z,16.97
2022-10-21T14:18:28.766Z,16.98
2022-10-21T14:20:57.714Z,17.00
2022-10-21T14:23:25.243Z,16.99
2022-10-21T14:25:55.568Z,16.98
2022-10-21T14:28:22.754Z,16.95
2022-10-21T14:30:50.106Z,16.90
2022-10-21T14:33:24.257Z,16.84
2022-10-21T14:36:07.025Z,16.79
2022-10-21T14:38:40.657Z,16.77
2022-10-21T14:41:17.771Z,16.74
2022-10-21T14:43:46.442Z,16.71
2022-10-21T14:46:13.669Z,16.68
2022-10-21T14:48:46.897Z,16.67
2022-10-21T14:51:21.154Z,16.63
2022-10-21T14:53:55.013Z,16.58
2022-10-21T14:56:29.425Z,16.54
2022-10-21T14:58:59.753Z,16.47
2022-10-21T15:01:27.068Z,16.42
2022-10-21T15:04:02.213Z,16.38
2022-10-21T15:06:34.809Z,16.33
2022-10-21T15:09:10.505Z,16.27
2022-10-21T15:11:41.611Z,16.24
2022-10-21T15:14:21.789Z,16.19
2022-10-21T15:16:57.790Z,16.15
2022-10-21T15:19:31.542Z,16.10
2022-10-21T15:22:03.187Z,16.06
2022-10-21T15:24:44.284Z,16.03
2022-10-21T15:27:17.829Z,15.96
2022-10-21T15:29:47.076Z,15.93
2022-10-21T15:32:19.073Z,15.89
2022-10-21T15:37:17.704Z,15.81
2022-10-21T15:39:45.498Z,15.77
2022-10-21T15:42:25.316Z,15.75
2022-10-21T15:44:52.206Z,15.73
2022-10-21T15:47:19.036Z,15.71
2022-10-21T15:49:46.713Z,15.70
2022-10-21T15:52:14.287Z,15.68
2022-10-21T15:54:41.657Z,15.66
2022-10-21T15:57:16.787Z,15.67
2022-10-21T15:59:43.883Z,15.67
2022-10-21T16:02:15.559Z,15.71
2022-10-21T16:04:43.911Z,15.72
2022-10-21T16:07:22.562Z,15.72
2022-10-21T16:09:49.443Z,15.69
2022-10-21T16:12:19.736Z,15.67
2022-10-21T16:14:46.318Z,15.66
2022-10-21T16:17:13.736Z,15.67
2022-10-21T16:19:40.378Z,15.69
2022-10-21T16:22:14.442Z,15.71
2022-10-21T16:24:41.137Z,15.72
2022-10-21T16:27:12.757Z,15.74
2022-10-21T16:29:39.800Z,15.73
2022-10-21T16:32:06.885Z,15.71
2022-10-21T16:34:33.510Z,15.69
2022-10-21T16:37:01.498Z,15.65
2022-10-21T16:39:28.177Z,15.62
2022-10-21T16:41:54.895Z,15.61
2022-10-21T16:44:21.416Z,15.60
2022-10-21T16:46:54.400Z,15.59
2022-10-21T16:49:24.881Z,15.56
2022-10-21T16:51:53.167Z,15.57
2022-10-21T16:54:21.622Z,15.58
2022-10-21T16:56:48.464Z,15.58
2022-10-21T16:59:15.077Z,15.60
2022-10-21T17:01:44.493Z,15.61
2022-10-21T17:04:14.533Z,15.61
2022-10-21T17:06:41.310Z,15.62
2022-10-21T17:09:08.038Z,15.64
2022-10-21T17:11:38.080Z,15.65
2022-10-21T17:14:06.816Z,15.65
2022-10-21T17:16:33.645Z,15.66
2022-10-21T17:19:00.226Z,15.65
2022-10-21T17:21:31.424Z,15.66
2022-10-21T17:24:00.507Z,15.68
2022-10-21T17:26:27.379Z,15.67
2022-10-21T17:28:54.060Z,15.68
2022-10-21T17:31:22.884Z,15.69
2022-10-21T17:33:50.200Z,15.68
2022-10-21T17:36:17.412Z,15.66
2022-10-21T17:38:44.213Z,15.69
2022-10-21T17:41:13.403Z,15.66
2022-10-21T17:43:40.150Z,15.66
2022-10-21T17:46:07.244Z,15.66
2022-10-21T17:48:34.117Z,15.64
2022-10-21T17:51:02.663Z,15.62
2022-10-21T17:53:31.231Z,15.63
2022-10-21T17:56:04.171Z,15.61
2022-10-21T17:58:30.939Z,15.61
2022-10-21T18:00:58.214Z,15.57
2022-10-21T18:03:26.631Z,15.51
2022-10-21T18:05:55.528Z,15.46
2022-10-21T18:08:23.172Z,15.40
2022-10-21T18:10:57.287Z,15.30
2022-10-21T18:13:29.711Z,15.20
2022-10-21T18:16:03.462Z,15.09
2022-10-21T18:18:30.212Z,15.00
2022-10-21T18:21:06.101Z,14.91
2022-10-21T18:23:33.672Z,14.85
2022-10-21T18:26:09.098Z,14.78
2022-10-21T18:28:35.822Z,14.70
2022-10-21T18:31:03.212Z,14.64
2022-10-21T18:33:30.376Z,14.60
2022-10-21T18:35:57.109Z,14.53
2022-10-21T18:38:23.771Z,14.50
2022-10-21T18:40:56.377Z,14.43
2022-10-21T18:43:28.636Z,14.38
2022-10-21T18:45:55.472Z,14.34
2022-10-21T18:48:22.104Z,14.32
2022-10-21T18:50:48.810Z,14.27
2022-10-21T18:53:15.603Z,14.24
2022-10-21T18:55:42.182Z,14.21
2022-10-21T18:58:08.973Z,14.17
2022-10-21T19:00:35.611Z,14.14
2022-10-21T19:03:02.161Z,14.13
2022-10-21T19:05:28.820Z,14.11
2022-10-21T19:07:55.396Z,14.10
2022-10-21T19:10:22.289Z,14.08
2022-10-21T19:12:48.926Z,14.08
2022-10-21T19:15:15.758Z,14.06
2022-10-21T19:17:43.835Z,14.06
2022-10-21T19:20:10.446Z,14.02
2022-10-21T19:22:37.029Z,13.99
2022-10-21T19:25:04.203Z,13.95
2022-10-21T19:27:31.022Z,13.89
2022-10-21T19:29:57.677Z,13.83
2022-10-21T19:32:24.285Z,13.78
2022-10-21T19:34:50.939Z,13.72
2022-10-21T19:37:17.560Z,13.67
2022-10-21T19:39:44.262Z,13.63
2022-10-21T19:42:10.924Z,13.59
2022-10-21T19:44:37.592Z,13.57
2022-10-21T19:47:06.588Z,13.56
2022-10-21T19:49:33.976Z,13.54
2022-10-21T19:52:00.887Z,13.51
2022-10-21T19:54:27.479Z,13.48
2022-10-21T19:56:54.337Z,13.46
2022-10-21T19:59:21.222Z,13.42
2022-10-21T20:01:47.898Z,13.40
2022-10-21T20:04:14.591Z,13.37
2022-10-21T20:06:41.286Z,13.35
2022-10-21T20:09:13.530Z,13.32
2022-10-21T20:11:41.713Z,13.29
2022-10-21T20:14:10.841Z,13.27
2022-10-21T20:16:41.945Z,13.26
2022-10-21T20:19:08.926Z,13.23
2022-10-21T20:21:37.474Z,13.21
2022-10-21T20:24:04.329Z,13.17
2022-10-21T20:26:31.007Z,13.15
2022-10-21T20:28:58.607Z,13.11
2022-10-21T20:31:25.180Z,13.08
2022-10-21T20:33:52.130Z,13.03
2022-10-21T20:36:26.300Z,13.01
2022-10-21T20:38:54.157Z,12.97
2022-10-21T20:41:25.233Z,12.95
2022-10-21T20:43:53.127Z,12.92
2022-10-21T20:46:22.082Z,12.89
2022-10-21T20:48:50.937Z,12.86
2022-10-21T20:51:26.012Z,12.83
2022-10-21T20:53:57.673Z,12.82
2022-10-21T20:56:33.851Z,12.81
2022-10-21T20:59:00.943Z,12.76
2022-10-21T21:01:31.288Z,12.75
2022-10-21T21:04:01.750Z,12.72
2022-10-21T21:06:29.003Z,12.68
2022-10-21T21:09:22.508Z,12.65
2022-10-21T21:11:42.216Z,12.63
2022-10-21T21:14:08.789Z,12.59
2022-10-21T21:16:35.370Z,12.56
2022-10-21T21:19:04.280Z,12.54
2022-10-21T21:21:34.457Z,12.52
2022-10-21T21:24:01.448Z,12.50
2022-10-21T21:26:36.780Z,12.47
2022-10-21T21:29:06.229Z,12.46
2022-10-21T21:31:34.650Z,12.45
2022-10-21T21:34:01.589Z,12.43
2022-10-21T21:36:28.696Z,12.42
2022-10-21T21:38:55.472Z,12.41
2022-10-21T21:41:24.362Z,12.42
2022-10-21T21:43:52.232Z,12.41
2022-10-21T21:46:24.155Z,12.41
2022-10-21T21:48:59.525Z,12.41
2022-10-21T21:51:30.167Z,12.41
2022-10-21T21:53:57.532Z,12.46
2022-10-21T21:56:25.230Z,12.50
2022-10-21T21:58:55.020Z,12.56
2022-10-21T22:01:25.369Z,12.61
2022-10-21T22:03:52.274Z,12.64
2022-10-21T22:06:20.361Z,12.65
2022-10-21T22:08:47.574Z,12.67
2022-10-21T22:11:18.455Z,12.67
2022-10-21T22:13:45.252Z,12.68
2022-10-21T22:16:14.738Z,12.69
2022-10-21T22:18:41.697Z,12.74
2022-10-21T22:21:11.172Z,12.79
2022-10-21T22:23:38.797Z,12.87
2022-10-21T22:26:06.795Z,12.94
2022-10-21T22:28:33.430Z,13.01
2022-10-21T22:31:01.085Z,13.06
2022-10-21T22:33:29.331Z,13.07
2022-10-21T22:35:55.969Z,13.07
2022-10-21T22:38:22.636Z,13.07
2022-10-21T22:40:54.142Z,13.05
2022-10-21T22:43:20.754Z,12.99
2022-10-21T22:45:48.212Z,12.94
2022-10-21T22:48:15.385Z,12.89
2022-10-21T22:50:42.221Z,12.85
2022-10-21T22:53:09.385Z,12.81
2022-10-21T22:55:36.612Z,12.78
2022-10-21T22:58:03.195Z,12.76
2022-10-21T23:00:29.986Z,12.75
2022-10-21T23:02:56.765Z,12.73
2022-10-21T23:05:23.339Z,12.73
2022-10-21T23:07:50.428Z,12.71
2022-10-21T23:10:17.160Z,12.70
2022-10-21T23:12:43.738Z,12.69
2022-10-21T23:15:11.075Z,12.69
2022-10-21T23:17:37.574Z,12.72
2022-10-21T23:20:04.609Z,12.73
2022-10-21T23:22:31.143Z,12.74
2022-10-21T23:24:57.693Z,12.74
2022-10-21T23:27:24.274Z,12.73
2022-10-21T23:29:50.786Z,12.73
2022-10-21T23:32:17.280Z,12.71
2022-10-21T23:34:43.968Z,12.71
2022-10-21T23:37:10.586Z,12.69
2022-10-21T23:39:37.180Z,12.68
2022-10-21T23:42:04.398Z,12.67
2022-10-21T23:44:31.261Z,12.65
2022-10-21T23:46:57.837Z,12.63
2022-10-21T23:49:24.481Z,12.61
2022-10-21T23:51:51.023Z,12.61
2022-10-21T23:54:17.890Z,12.59
2022-10-21T23:56:45.394Z,12.58
2022-10-21T23:59:12.179Z,12.56
